sensor_id;sensor_type;location;lat;lon;timestamp;P1;durP1;ratioP1;P2;durP2;ratioP2
10872;SDS011;34586;53.616;10.032;2022-12-18T00:01:34;18.30;;;13.70;;
10872;SDS011;34586;53.616;10.032;2022-12-18T00:04:02;21.97;;;13.50;;
10872;SDS011;34586;53.616;10.032;2022-12-18T00:06:33;18.23;;;13.10;;
10872;SDS011;34586;53.616;10.032;2022-12-18T00:08:59;20.50;;;13.53;;
10872;SDS011;34586;53.616;10.032;2022-12-18T00:11:27;19.97;;;14.00;;
10872;SDS011;34586;53.616;10.032;2022-12-18T00:13:55;23.97;;;13.97;;
10872;SDS011;34586;53.616;10.032;2022-12-18T00:16:22;20.93;;;14.27;;
10872;SDS011;34586;53.616;10.032;2022-12-18T00:18:51;19.67;;;13.57;;
10872;SDS011;34586;53.616;10.032;2022-12-18T00:21:19;26.87;;;14.03;;
10872;SDS011;34586;53.616;10.032;2022-12-18T00:23:46;22.27;;;13.33;;
10872;SDS011;34586;53.616;10.032;2022-12-18T00:26:17;18.77;;;12.93;;
10872;SDS011;34586;53.616;10.032;2022-12-18T00:28:51;22.37;;;13.87;;
10872;SDS011;34586;53.616;10.032;2022-12-18T00:31:18;22.07;;;14.50;;
10872;SDS011;34586;53.616;10.032;2022-12-18T00:33:45;19.67;;;13.53;;
10872;SDS011;34586;53.616;10.032;2022-12-18T00:36:12;17.93;;;13.17;;
10872;SDS011;34586;53.616;10.032;2022-12-18T00:38:39;23.83;;;14.27;;
10872;SDS011;34586;53.616;10.032;2022-12-18T00:41:06;22.37;;;13.57;;
10872;SDS011;34586;53.616;10.032;2022-12-18T00:43:35;21.47;;;13.57;;
10872;SDS011;34586;53.616;10.032;2022-12-18T00:46:02;19.20;;;13.07;;
10872;SDS011;34586;53.616;10.032;2022-12-18T00:48:28;20.03;;;13.53;;
10872;SDS011;34586;53.616;10.032;2022-12-18T00:50:54;19.33;;;12.70;;
10872;SDS011;34586;53.616;10.032;2022-12-18T00:53:19;21.20;;;13.53;;
10872;SDS011;34586;53.616;10.032;2022-12-18T00:55:45;18.93;;;12.90;;
10872;SDS011;34586;53.616;10.032;2022-12-18T00:58:12;24.80;;;13.63;;
10872;SDS011;34586;53.616;10.032;2022-12-18T01:00:40;20.60;;;13.07;;
10872;SDS011;34586;53.616;10.032;2022-12-18T01:03:05;20.47;;;12.50;;
10872;SDS011;34586;53.616;10.032;2022-12-18T01:05:31;18.93;;;12.97;;
10872;SDS011;34586;53.616;10.032;2022-12-18T01:07:57;18.10;;;12.33;;
10872;SDS011;34586;53.616;10.032;2022-12-18T01:10:23;20.17;;;13.10;;
10872;SDS011;34586;53.616;10.032;2022-12-18T01:12:50;19.83;;;13.03;;
10872;SDS011;34586;53.616;10.032;2022-12-18T01:15:16;21.37;;;12.53;;
10872;SDS011;34586;53.616;10.032;2022-12-18T01:17:42;20.97;;;12.77;;
10872;SDS011;34586;53.616;10.032;2022-12-18T01:20:08;17.80;;;11.77;;
10872;SDS011;34586;53.616;10.032;2022-12-18T01:22:35;21.50;;;12.67;;
10872;SDS011;34586;53.616;10.032;2022-12-18T01:25:01;17.43;;;11.33;;
10872;SDS011;34586;53.616;10.032;2022-12-18T01:27:27;17.37;;;12.37;;
10872;SDS011;34586;53.616;10.032;2022-12-18T01:29:52;16.50;;;11.80;;
10872;SDS011;34586;53.616;10.032;2022-12-18T01:32:19;19.63;;;12.17;;
10872;SDS011;34586;53.616;10.032;2022-12-18T01:34:44;20.13;;;12.47;;
10872;SDS011;34586;53.616;10.032;2022-12-18T01:37:10;19.97;;;13.20;;
10872;SDS011;34586;53.616;10.032;2022-12-18T01:39:35;18.50;;;11.90;;
10872;SDS011;34586;53.616;10.032;2022-12-18T01:42:09;19.57;;;12.33;;
10872;SDS011;34586;53.616;10.032;2022-12-18T01:50:10;18.33;;;12.03;;
10872;SDS011;34586;53.616;10.032;2022-12-18T01:52:42;18.30;;;12.30;;
10872;SDS011;34586;53.616;10.032;2022-12-18T01:55:12;17.60;;;12.07;;
10872;SDS011;34586;53.616;10.032;2022-12-18T01:57:41;18.80;;;12.27;;
10872;SDS011;34586;53.616;10.032;2022-12-18T02:00:11;16.00;;;12.13;;
10872;SDS011;34586;53.616;10.032;2022-12-18T02:02:40;19.13;;;11.83;;
10872;SDS011;34586;53.616;10.032;2022-12-18T02:05:08;19.57;;;12.07;;
10872;SDS011;34586;53.616;10.032;2022-12-18T02:10:35;17.13;;;12.10;;
10872;SDS011;34586;53.616;10.032;2022-12-18T02:15:49;14.80;;;11.33;;
10872;SDS011;34586;53.616;10.032;2022-12-18T02:18:26;14.67;;;10.83;;
10872;SDS011;34586;53.616;10.032;2022-12-18T02:23:54;17.97;;;12.27;;
10872;SDS011;34586;53.616;10.032;2022-12-18T02:26:32;17.90;;;11.30;;
10872;SDS011;34586;53.616;10.032;2022-12-18T02:31:36;16.50;;;11.60;;
10872;SDS011;34586;53.616;10.032;2022-12-18T02:34:06;17.97;;;12.07;;
10872;SDS011;34586;53.616;10.032;2022-12-18T02:36:34;19.23;;;11.33;;
10872;SDS011;34586;53.616;10.032;2022-12-18T02:39:03;17.97;;;11.30;;
10872;SDS011;34586;53.616;10.032;2022-12-18T02:41:31;17.10;;;11.07;;
10872;SDS011;34586;53.616;10.032;2022-12-18T02:43:59;13.43;;;10.57;;
10872;SDS011;34586;53.616;10.032;2022-12-18T02:48:53;16.50;;;11.43;;
10872;SDS011;34586;53.616;10.032;2022-12-18T02:51:30;15.40;;;10.67;;
10872;SDS011;34586;53.616;10.032;2022-12-18T02:54:10;15.77;;;10.63;;
10872;SDS011;34586;53.616;10.032;2022-12-18T02:56:50;16.90;;;10.80;;
10872;SDS011;34586;53.616;10.032;2022-12-18T02:59:20;18.23;;;12.00;;
10872;SDS011;34586;53.616;10.032;2022-12-18T03:01:58;13.90;;;10.03;;
10872;SDS011;34586;53.616;10.032;2022-12-18T03:04:30;15.00;;;10.10;;
10872;SDS011;34586;53.616;10.032;2022-12-18T03:07:09;16.47;;;10.73;;
10872;SDS011;34586;53.616;10.032;2022-12-18T03:09:42;18.57;;;11.77;;
10872;SDS011;34586;53.616;10.032;2022-12-18T03:15:08;17.10;;;11.33;;
10872;SDS011;34586;53.616;10.032;2022-12-18T03:17:45;15.93;;;10.23;;
10872;SDS011;34586;53.616;10.032;2022-12-18T03:20:17;16.40;;;11.03;;
10872;SDS011;34586;53.616;10.032;2022-12-18T03:22:46;16.63;;;10.93;;
10872;SDS011;34586;53.616;10.032;2022-12-18T03:25:16;17.27;;;10.70;;
10872;SDS011;34586;53.616;10.032;2022-12-18T03:27:46;17.83;;;11.00;;
10872;SDS011;34586;53.616;10.032;2022-12-18T03:30:14;15.47;;;10.23;;
10872;SDS011;34586;53.616;10.032;2022-12-18T03:32:47;15.03;;;10.63;;
10872;SDS011;34586;53.616;10.032;2022-12-18T03:35:19;19.27;;;11.30;;
10872;SDS011;34586;53.616;10.032;2022-12-18T03:37:49;14.73;;;9.77;;
10872;SDS011;34586;53.616;10.032;2022-12-18T03:40:15;18.57;;;10.90;;
10872;SDS011;34586;53.616;10.032;2022-12-18T03:42:45;13.23;;;9.90;;
10872;SDS011;34586;53.616;10.032;2022-12-18T03:48:13;15.13;;;10.20;;
10872;SDS011;34586;53.616;10.032;2022-12-18T03:50:46;15.03;;;10.23;;
10872;SDS011;34586;53.616;10.032;2022-12-18T03:53:24;17.47;;;10.40;;
10872;SDS011;34586;53.616;10.032;2022-12-18T03:56:02;15.27;;;9.53;;
10872;SDS011;34586;53.616;10.032;2022-12-18T03:58:29;14.90;;;9.73;;
10872;SDS011;34586;53.616;10.032;2022-12-18T04:01:00;15.97;;;10.07;;
10872;SDS011;34586;53.616;10.032;2022-12-18T04:03:28;15.13;;;10.03;;
10872;SDS011;34586;53.616;10.032;2022-12-18T04:05:56;15.53;;;10.10;;
10872;SDS011;34586;53.616;10.032;2022-12-18T04:08:24;14.67;;;9.50;;
10872;SDS011;34586;53.616;10.032;2022-12-18T04:10:50;15.23;;;9.40;;
10872;SDS011;34586;53.616;10.032;2022-12-18T04:13:49;16.43;;;10.20;;
10872;SDS011;34586;53.616;10.032;2022-12-18T04:16:08;17.20;;;10.00;;
10872;SDS011;34586;53.616;10.032;2022-12-18T04:18:34;12.80;;;9.30;;
10872;SDS011;34586;53.616;10.032;2022-12-18T04:21:00;17.03;;;9.37;;
10872;SDS011;34586;53.616;10.032;2022-12-18T04:23:26;14.57;;;9.67;;
10872;SDS011;34586;53.616;10.032;2022-12-18T04:25:53;14.17;;;9.77;;
10872;SDS011;34586;53.616;10.032;2022-12-18T04:28:19;15.23;;;9.60;;
10872;SDS011;34586;53.616;10.032;2022-12-18T04:30:44;15.07;;;9.73;;
10872;SDS011;34586;53.616;10.032;2022-12-18T04:33:10;16.23;;;9.43;;
10872;SDS011;34586;53.616;10.032;2022-12-18T04:35:37;14.67;;;9.80;;
10872;SDS011;34586;53.616;10.032;2022-12-18T04:38:04;11.17;;;8.60;;
10872;SDS011;34586;53.616;10.032;2022-12-18T04:40:35;12.73;;;9.37;;
10872;SDS011;34586;53.616;10.032;2022-12-18T04:43:01;14.20;;;9.87;;
10872;SDS011;34586;53.616;10.032;2022-12-18T04:45:29;16.17;;;9.83;;
10872;SDS011;34586;53.616;10.032;2022-12-18T04:47:56;16.07;;;9.87;;
10872;SDS011;34586;53.616;10.032;2022-12-18T04:50:25;14.30;;;9.20;;
10872;SDS011;34586;53.616;10.032;2022-12-18T04:52:52;12.37;;;9.47;;
10872;SDS011;34586;53.616;10.032;2022-12-18T04:55:18;14.47;;;9.90;;
10872;SDS011;34586;53.616;10.032;2022-12-18T04:57:43;18.63;;;10.00;;
10872;SDS011;34586;53.616;10.032;2022-12-18T05:00:09;17.50;;;10.20;;
10872;SDS011;34586;53.616;10.032;2022-12-18T05:02:35;13.87;;;9.80;;
10872;SDS011;34586;53.616;10.032;2022-12-18T05:05:00;14.27;;;9.73;;
10872;SDS011;34586;53.616;10.032;2022-12-18T05:07:26;16.57;;;10.03;;
10872;SDS011;34586;53.616;10.032;2022-12-18T05:09:52;15.43;;;10.03;;
10872;SDS011;34586;53.616;10.032;2022-12-18T05:12:17;14.77;;;10.10;;
10872;SDS011;34586;53.616;10.032;2022-12-18T05:14:43;17.50;;;10.27;;
10872;SDS011;34586;53.616;10.032;2022-12-18T05:17:08;15.97;;;9.70;;
10872;SDS011;34586;53.616;10.032;2022-12-18T05:19:34;12.97;;;9.63;;
10872;SDS011;34586;53.616;10.032;2022-12-18T05:22:00;15.83;;;10.10;;
10872;SDS011;34586;53.616;10.032;2022-12-18T05:24:26;16.23;;;10.20;;
10872;SDS011;34586;53.616;10.032;2022-12-18T05:26:52;14.53;;;9.37;;
10872;SDS011;34586;53.616;10.032;2022-12-18T05:29:17;13.70;;;10.37;;
10872;SDS011;34586;53.616;10.032;2022-12-18T05:31:43;13.67;;;9.00;;
10872;SDS011;34586;53.616;10.032;2022-12-18T05:34:08;13.53;;;9.07;;
10872;SDS011;34586;53.616;10.032;2022-12-18T05:36:34;15.37;;;9.77;;
10872;SDS011;34586;53.616;10.032;2022-12-18T05:39:00;14.30;;;10.47;;
10872;SDS011;34586;53.616;10.032;2022-12-18T05:41:26;16.57;;;9.60;;
10872;SDS011;34586;53.616;10.032;2022-12-18T05:43:51;12.80;;;10.07;;
10872;SDS011;34586;53.616;10.032;2022-12-18T05:46:17;14.03;;;10.00;;
10872;SDS011;34586;53.616;10.032;2022-12-18T05:48:43;17.60;;;10.30;;
10872;SDS011;34586;53.616;10.032;2022-12-18T05:51:11;14.13;;;10.07;;
10872;SDS011;34586;53.616;10.032;2022-12-18T05:53:41;19.20;;;11.17;;
10872;SDS011;34586;53.616;10.032;2022-12-18T05:56:11;16.87;;;9.97;;
10872;SDS011;34586;53.616;10.032;2022-12-18T05:58:39;13.93;;;9.73;;
10872;SDS011;34586;53.616;10.032;2022-12-18T06:01:06;16.17;;;9.87;;
10872;SDS011;34586;53.616;10.032;2022-12-18T06:03:35;15.57;;;10.60;;
10872;SDS011;34586;53.616;10.032;2022-12-18T06:06:00;15.93;;;10.57;;
10872;SDS011;34586;53.616;10.032;2022-12-18T06:08:26;17.50;;;10.47;;
10872;SDS011;34586;53.616;10.032;2022-12-18T06:10:52;17.27;;;10.77;;
10872;SDS011;34586;53.616;10.032;2022-12-18T06:13:18;14.90;;;10.30;;
10872;SDS011;34586;53.616;10.032;2022-12-18T06:15:44;15.97;;;10.40;;
10872;SDS011;34586;53.616;10.032;2022-12-18T06:18:10;17.87;;;11.00;;
10872;SDS011;34586;53.616;10.032;2022-12-18T06:20:35;15.80;;;10.50;;
10872;SDS011;34586;53.616;10.032;2022-12-18T06:23:02;14.47;;;10.03;;
10872;SDS011;34586;53.616;10.032;2022-12-18T06:25:27;15.87;;;10.37;;
10872;SDS011;34586;53.616;10.032;2022-12-18T06:27:53;14.63;;;10.80;;
10872;SDS011;34586;53.616;10.032;2022-12-18T06:30:19;16.37;;;10.73;;
10872;SDS011;34586;53.616;10.032;2022-12-18T06:32:45;18.87;;;11.70;;
10872;SDS011;34586;53.616;10.032;2022-12-18T06:35:10;15.80;;;11.00;;
10872;SDS011;34586;53.616;10.032;2022-12-18T06:37:36;16.80;;;10.50;;
10872;SDS011;34586;53.616;10.032;2022-12-18T06:40:01;16.70;;;11.27;;
10872;SDS011;34586;53.616;10.032;2022-12-18T06:42:28;15.33;;;10.90;;
10872;SDS011;34586;53.616;10.032;2022-12-18T06:44:54;16.03;;;11.20;;
10872;SDS011;34586;53.616;10.032;2022-12-18T06:47:19;15.10;;;10.63;;
10872;SDS011;34586;53.616;10.032;2022-12-18T06:49:45;18.40;;;10.87;;
10872;SDS011;34586;53.616;10.032;2022-12-18T06:52:11;17.67;;;11.87;;
10872;SDS011;34586;53.616;10.032;2022-12-18T06:54:36;16.83;;;11.00;;
10872;SDS011;34586;53.616;10.032;2022-12-18T06:57:02;17.20;;;11.37;;
10872;SDS011;34586;53.616;10.032;2022-12-18T06:59:27;15.90;;;11.37;;
10872;SDS011;34586;53.616;10.032;2022-12-18T07:01:53;16.43;;;11.73;;
10872;SDS011;34586;53.616;10.032;2022-12-18T07:04:19;16.50;;;10.70;;
10872;SDS011;34586;53.616;10.032;2022-12-18T07:06:44;16.93;;;11.50;;
10872;SDS011;34586;53.616;10.032;2022-12-18T07:09:10;17.63;;;10.67;;
10872;SDS011;34586;53.616;10.032;2022-12-18T07:11:35;15.33;;;10.40;;
10872;SDS011;34586;53.616;10.032;2022-12-18T07:14:01;15.57;;;11.43;;
10872;SDS011;34586;53.616;10.032;2022-12-18T07:16:26;15.70;;;11.07;;
10872;SDS011;34586;53.616;10.032;2022-12-18T07:18:55;23.03;;;12.17;;
10872;SDS011;34586;53.616;10.032;2022-12-18T07:21:21;16.80;;;11.17;;
10872;SDS011;34586;53.616;10.032;2022-12-18T07:23:48;19.30;;;11.63;;
10872;SDS011;34586;53.616;10.032;2022-12-18T07:26:14;17.00;;;11.20;;
10872;SDS011;34586;53.616;10.032;2022-12-18T07:28:41;16.57;;;11.40;;
10872;SDS011;34586;53.616;10.032;2022-12-18T07:31:14;18.50;;;11.23;;
10872;SDS011;34586;53.616;10.032;2022-12-18T07:33:42;17.67;;;11.50;;
10872;SDS011;34586;53.616;10.032;2022-12-18T07:36:08;16.47;;;11.77;;
10872;SDS011;34586;53.616;10.032;2022-12-18T07:38:35;17.27;;;12.23;;
10872;SDS011;34586;53.616;10.032;2022-12-18T07:41:04;18.17;;;11.73;;
10872;SDS011;34586;53.616;10.032;2022-12-18T07:43:31;15.27;;;11.27;;
10872;SDS011;34586;53.616;10.032;2022-12-18T07:45:57;17.47;;;11.37;;
10872;SDS011;34586;53.616;10.032;2022-12-18T07:48:23;18.40;;;11.70;;
10872;SDS011;34586;53.616;10.032;2022-12-18T07:50:48;18.47;;;11.03;;
10872;SDS011;34586;53.616;10.032;2022-12-18T07:53:14;17.87;;;11.50;;
10872;SDS011;34586;53.616;10.032;2022-12-18T07:55:40;17.30;;;11.87;;
10872;SDS011;34586;53.616;10.032;2022-12-18T07:58:06;16.73;;;11.37;;
10872;SDS011;34586;53.616;10.032;2022-12-18T08:00:33;17.63;;;12.20;;
10872;SDS011;34586;53.616;10.032;2022-12-18T08:02:59;16.40;;;10.80;;
10872;SDS011;34586;53.616;10.032;2022-12-18T08:05:25;20.00;;;12.03;;
10872;SDS011;34586;53.616;10.032;2022-12-18T08:07:50;15.87;;;11.83;;
10872;SDS011;34586;53.616;10.032;2022-12-18T08:10:16;15.60;;;11.70;;
10872;SDS011;34586;53.616;10.032;2022-12-18T08:12:42;16.97;;;11.57;;
10872;SDS011;34586;53.616;10.032;2022-12-18T08:15:08;16.10;;;11.23;;
10872;SDS011;34586;53.616;10.032;2022-12-18T08:17:34;19.73;;;11.63;;
10872;SDS011;34586;53.616;10.032;2022-12-18T08:19:59;19.63;;;12.57;;
10872;SDS011;34586;53.616;10.032;2022-12-18T08:22:25;19.53;;;12.10;;
10872;SDS011;34586;53.616;10.032;2022-12-18T08:24:51;19.23;;;12.57;;
10872;SDS011;34586;53.616;10.032;2022-12-18T08:27:16;20.30;;;11.60;;
10872;SDS011;34586;53.616;10.032;2022-12-18T08:29:42;17.60;;;11.43;;
10872;SDS011;34586;53.616;10.032;2022-12-18T08:32:08;20.53;;;12.27;;
10872;SDS011;34586;53.616;10.032;2022-12-18T08:34:33;15.57;;;11.87;;
10872;SDS011;34586;53.616;10.032;2022-12-18T08:36:59;17.17;;;12.10;;
10872;SDS011;34586;53.616;10.032;2022-12-18T08:39:25;18.70;;;12.23;;
10872;SDS011;34586;53.616;10.032;2022-12-18T08:41:50;22.53;;;13.07;;
10872;SDS011;34586;53.616;10.032;2022-12-18T08:44:34;18.33;;;12.30;;
10872;SDS011;34586;53.616;10.032;2022-12-18T08:47:03;16.63;;;11.80;;
10872;SDS011;34586;53.616;10.032;2022-12-18T08:49:29;19.37;;;13.03;;
10872;SDS011;34586;53.616;10.032;2022-12-18T08:51:55;19.50;;;12.67;;
10872;SDS011;34586;53.616;10.032;2022-12-18T08:54:22;20.57;;;12.53;;
10872;SDS011;34586;53.616;10.032;2022-12-18T08:56:49;18.63;;;12.60;;
10872;SDS011;34586;53.616;10.032;2022-12-18T08:59:15;16.97;;;11.97;;
10872;SDS011;34586;53.616;10.032;2022-12-18T09:01:44;18.60;;;12.60;;
10872;SDS011;34586;53.616;10.032;2022-12-18T09:04:10;17.53;;;12.70;;
10872;SDS011;34586;53.616;10.032;2022-12-18T09:06:36;17.03;;;11.13;;
10872;SDS011;34586;53.616;10.032;2022-12-18T09:09:03;19.17;;;12.17;;
10872;SDS011;34586;53.616;10.032;2022-12-18T09:11:30;20.23;;;11.87;;
10872;SDS011;34586;53.616;10.032;2022-12-18T09:13:56;18.13;;;12.07;;
10872;SDS011;34586;53.616;10.032;2022-12-18T09:16:24;17.03;;;11.53;;
10872;SDS011;34586;53.616;10.032;2022-12-18T09:18:51;19.00;;;12.47;;
10872;SDS011;34586;53.616;10.032;2022-12-18T09:21:19;17.77;;;12.83;;
10872;SDS011;34586;53.616;10.032;2022-12-18T09:23:51;20.10;;;12.70;;
10872;SDS011;34586;53.616;10.032;2022-12-18T09:26:18;19.53;;;11.73;;
10872;SDS011;34586;53.616;10.032;2022-12-18T09:28:43;18.87;;;11.77;;
10872;SDS011;34586;53.616;10.032;2022-12-18T09:31:11;17.87;;;12.20;;
10872;SDS011;34586;53.616;10.032;2022-12-18T09:33:38;16.50;;;11.83;;
10872;SDS011;34586;53.616;10.032;2022-12-18T09:36:04;19.43;;;12.53;;
10872;SDS011;34586;53.616;10.032;2022-12-18T09:38:31;18.53;;;11.90;;
10872;SDS011;34586;53.616;10.032;2022-12-18T09:41:04;18.53;;;11.90;;
10872;SDS011;34586;53.616;10.032;2022-12-18T09:43:50;18.93;;;12.83;;
10872;SDS011;34586;53.616;10.032;2022-12-18T09:46:20;16.33;;;11.43;;
10872;SDS011;34586;53.616;10.032;2022-12-18T09:48:52;16.67;;;11.23;;
10872;SDS011;34586;53.616;10.032;2022-12-18T09:51:22;17.80;;;11.47;;
10872;SDS011;34586;53.616;10.032;2022-12-18T09:53:53;18.73;;;11.93;;
10872;SDS011;34586;53.616;10.032;2022-12-18T09:56:23;18.87;;;11.70;;
10872;SDS011;34586;53.616;10.032;2022-12-18T09:58:55;17.50;;;11.60;;
10872;SDS011;34586;53.616;10.032;2022-12-18T10:01:24;17.90;;;12.30;;
10872;SDS011;34586;53.616;10.032;2022-12-18T10:03:51;18.47;;;11.97;;
10872;SDS011;34586;53.616;10.032;2022-12-18T10:08:54;17.73;;;11.20;;
10872;SDS011;34586;53.616;10.032;2022-12-18T10:11:47;18.30;;;11.10;;
10872;SDS011;34586;53.616;10.032;2022-12-18T10:19:42;16.60;;;11.03;;
10872;SDS011;34586;53.616;10.032;2022-12-18T10:25:14;16.17;;;11.50;;
10872;SDS011;34586;53.616;10.032;2022-12-18T10:27:47;17.67;;;11.50;;
10872;SDS011;34586;53.616;10.032;2022-12-18T10:30:17;17.50;;;11.30;;
10872;SDS011;34586;53.616;10.032;2022-12-18T10:32:44;15.87;;;11.03;;
10872;SDS011;34586;53.616;10.032;2022-12-18T10:35:28;20.90;;;14.83;;
10872;SDS011;34586;53.616;10.032;2022-12-18T10:38:00;16.50;;;12.07;;
10872;SDS011;34586;53.616;10.032;2022-12-18T10:40:49;17.67;;;11.93;;
10872;SDS011;34586;53.616;10.032;2022-12-18T10:43:24;18.07;;;10.77;;
10872;SDS011;34586;53.616;10.032;2022-12-18T10:48:26;19.07;;;11.53;;
10872;SDS011;34586;53.616;10.032;2022-12-18T10:50:53;17.47;;;11.53;;
10872;SDS011;34586;53.616;10.032;2022-12-18T10:53:23;14.13;;;10.40;;
10872;SDS011;34586;53.616;10.032;2022-12-18T10:55:50;14.93;;;10.10;;
10872;SDS011;34586;53.616;10.032;2022-12-18T10:58:32;15.37;;;10.97;;
10872;SDS011;34586;53.616;10.032;2022-12-18T11:01:04;15.77;;;11.50;;
10872;SDS011;34586;53.616;10.032;2022-12-18T11:06:14;17.33;;;10.13;;
10872;SDS011;34586;53.616;10.032;2022-12-18T11:08:42;14.30;;;10.03;;
10872;SDS011;34586;53.616;10.032;2022-12-18T11:11:19;14.33;;;11.27;;
10872;SDS011;34586;53.616;10.032;2022-12-18T11:16:24;14.93;;;10.70;;
10872;SDS011;34586;53.616;10.032;2022-12-18T11:18:51;15.87;;;10.70;;
10872;SDS011;34586;53.616;10.032;2022-12-18T11:21:16;17.20;;;10.07;;
10872;SDS011;34586;53.616;10.032;2022-12-18T11:23:51;15.33;;;10.40;;
10872;SDS011;34586;53.616;10.032;2022-12-18T11:26:18;16.50;;;10.83;;
10872;SDS011;34586;53.616;10.032;2022-12-18T11:28:49;15.03;;;10.13;;
10872;SDS011;34586;53.616;10.032;2022-12-18T11:36:38;16.07;;;10.77;;
10872;SDS011;34586;53.616;10.032;2022-12-18T11:44:43;15.10;;;10.43;;
10872;SDS011;34586;53.616;10.032;2022-12-18T11:50:43;15.33;;;10.17;;
10872;SDS011;34586;53.616;10.032;2022-12-18T11:53:12;15.77;;;10.47;;
10872;SDS011;34586;53.616;10.032;2022-12-18T11:55:46;14.07;;;10.03;;
10872;SDS011;34586;53.616;10.032;2022-12-18T12:00:47;20.73;;;12.63;;
10872;SDS011;34586;53.616;10.032;2022-12-18T12:03:39;19.30;;;12.00;;
10872;SDS011;34586;53.616;10.032;2022-12-18T12:11:53;18.27;;;10.70;;
10872;SDS011;34586;53.616;10.032;2022-12-18T12:14:40;15.57;;;10.90;;
10872;SDS011;34586;53.616;10.032;2022-12-18T12:20:01;18.33;;;11.13;;
10872;SDS011;34586;53.616;10.032;2022-12-18T12:25:41;17.87;;;11.67;;
10872;SDS011;34586;53.616;10.032;2022-12-18T12:39:35;13.90;;;9.70;;
10872;SDS011;34586;53.616;10.032;2022-12-18T12:42:06;13.53;;;9.77;;
10872;SDS011;34586;53.616;10.032;2022-12-18T12:44:59;15.73;;;10.97;;
10872;SDS011;34586;53.616;10.032;2022-12-18T12:47:30;15.67;;;10.03;;
10872;SDS011;34586;53.616;10.032;2022-12-18T12:50:03;17.73;;;10.87;;
10872;SDS011;34586;53.616;10.032;2022-12-18T12:55:00;15.80;;;9.90;;
10872;SDS011;34586;53.616;10.032;2022-12-18T12:57:36;16.30;;;10.17;;
10872;SDS011;34586;53.616;10.032;2022-12-18T13:00:09;14.93;;;9.43;;
10872;SDS011;34586;53.616;10.032;2022-12-18T13:02:47;15.80;;;10.73;;
10872;SDS011;34586;53.616;10.032;2022-12-18T13:05:23;14.17;;;9.93;;
10872;SDS011;34586;53.616;10.032;2022-12-18T13:08:11;14.33;;;9.90;;
10872;SDS011;34586;53.616;10.032;2022-12-18T13:10:46;16.50;;;11.37;;
10872;SDS011;34586;53.616;10.032;2022-12-18T13:13:13;16.63;;;10.70;;
10872;SDS011;34586;53.616;10.032;2022-12-18T13:18:25;16.63;;;10.67;;
10872;SDS011;34586;53.616;10.032;2022-12-18T13:25:55;15.63;;;10.97;;
10872;SDS011;34586;53.616;10.032;2022-12-18T13:28:23;18.20;;;11.60;;
10872;SDS011;34586;53.616;10.032;2022-12-18T13:31:01;18.07;;;11.23;;
10872;SDS011;34586;53.616;10.032;2022-12-18T13:41:39;22.33;;;13.37;;
10872;SDS011;34586;53.616;10.032;2022-12-18T13:44:28;19.33;;;12.73;;
10872;SDS011;34586;53.616;10.032;2022-12-18T13:46:56;20.10;;;12.83;;
10872;SDS011;34586;53.616;10.032;2022-12-18T13:51:51;18.97;;;12.73;;
10872;SDS011;34586;53.616;10.032;2022-12-18T13:54:21;23.27;;;14.17;;
10872;SDS011;34586;53.616;10.032;2022-12-18T13:56:53;24.47;;;13.30;;
10872;SDS011;34586;53.616;10.032;2022-12-18T13:59:20;20.23;;;12.80;;
10872;SDS011;34586;53.616;10.032;2022-12-18T14:04:22;21.80;;;13.57;;
10872;SDS011;34586;53.616;10.032;2022-12-18T14:06:49;21.80;;;13.00;;
10872;SDS011;34586;53.616;10.032;2022-12-18T14:09:23;22.00;;;12.93;;
10872;SDS011;34586;53.616;10.032;2022-12-18T14:11:51;23.50;;;14.43;;
10872;SDS011;34586;53.616;10.032;2022-12-18T14:14:17;20.27;;;13.33;;
10872;SDS011;34586;53.616;10.032;2022-12-18T14:16:45;23.47;;;13.47;;
10872;SDS011;34586;53.616;10.032;2022-12-18T14:19:13;21.67;;;13.33;;
10872;SDS011;34586;53.616;10.032;2022-12-18T14:21:45;21.47;;;12.97;;
10872;SDS011;34586;53.616;10.032;2022-12-18T14:24:16;24.27;;;14.40;;
10872;SDS011;34586;53.616;10.032;2022-12-18T14:26:44;23.43;;;13.67;;
10872;SDS011;34586;53.616;10.032;2022-12-18T14:29:24;25.23;;;14.73;;
10872;SDS011;34586;53.616;10.032;2022-12-18T14:32:04;28.57;;;15.37;;
10872;SDS011;34586;53.616;10.032;2022-12-18T14:34:39;26.80;;;14.77;;
10872;SDS011;34586;53.616;10.032;2022-12-18T14:37:04;26.47;;;15.40;;
10872;SDS011;34586;53.616;10.032;2022-12-18T14:39:31;31.50;;;17.73;;
10872;SDS011;34586;53.616;10.032;2022-12-18T14:41:57;35.97;;;21.70;;
10872;SDS011;34586;53.616;10.032;2022-12-18T14:44:23;28.93;;;17.63;;
10872;SDS011;34586;53.616;10.032;2022-12-18T14:46:49;29.33;;;16.40;;
10872;SDS011;34586;53.616;10.032;2022-12-18T14:52:27;26.00;;;15.67;;
10872;SDS011;34586;53.616;10.032;2022-12-18T14:54:51;24.77;;;15.17;;
10872;SDS011;34586;53.616;10.032;2022-12-18T14:57:21;29.80;;;16.23;;
10872;SDS011;34586;53.616;10.032;2022-12-18T14:59:49;29.87;;;16.23;;
10872;SDS011;34586;53.616;10.032;2022-12-18T15:02:18;29.93;;;16.20;;
10872;SDS011;34586;53.616;10.032;2022-12-18T15:05:03;25.40;;;15.20;;
10872;SDS011;34586;53.616;10.032;2022-12-18T15:07:40;30.67;;;16.30;;
10872;SDS011;34586;53.616;10.032;2022-12-18T15:18:05;27.40;;;15.87;;
10872;SDS011;34586;53.616;10.032;2022-12-18T15:20:39;28.60;;;15.70;;
10872;SDS011;34586;53.616;10.032;2022-12-18T15:23:21;31.00;;;17.07;;
10872;SDS011;34586;53.616;10.032;2022-12-18T15:25:58;30.60;;;18.30;;
10872;SDS011;34586;53.616;10.032;2022-12-18T15:28:31;31.63;;;17.53;;
10872;SDS011;34586;53.616;10.032;2022-12-18T15:33:41;34.97;;;17.60;;
10872;SDS011;34586;53.616;10.032;2022-12-18T15:36:11;26.63;;;16.27;;
10872;SDS011;34586;53.616;10.032;2022-12-18T15:38:39;32.13;;;17.33;;
10872;SDS011;34586;53.616;10.032;2022-12-18T15:41:04;30.37;;;17.23;;
10872;SDS011;34586;53.616;10.032;2022-12-18T15:43:42;32.80;;;17.73;;
10872;SDS011;34586;53.616;10.032;2022-12-18T15:46:12;29.87;;;16.40;;
10872;SDS011;34586;53.616;10.032;2022-12-18T15:48:49;32.17;;;18.03;;
10872;SDS011;34586;53.616;10.032;2022-12-18T15:54:04;30.40;;;17.03;;
10872;SDS011;34586;53.616;10.032;2022-12-18T15:56:34;30.40;;;17.03;;
10872;SDS011;34586;53.616;10.032;2022-12-18T15:59:19;27.03;;;15.93;;
10872;SDS011;34586;53.616;10.032;2022-12-18T16:01:49;25.87;;;16.43;;
10872;SDS011;34586;53.616;10.032;2022-12-18T16:04:17;33.77;;;17.33;;
10872;SDS011;34586;53.616;10.032;2022-12-18T16:06:47;30.30;;;16.20;;
10872;SDS011;34586;53.616;10.032;2022-12-18T16:09:13;27.80;;;15.53;;
10872;SDS011;34586;53.616;10.032;2022-12-18T16:11:40;30.60;;;17.20;;
10872;SDS011;34586;53.616;10.032;2022-12-18T16:16:45;30.03;;;15.90;;
10872;SDS011;34586;53.616;10.032;2022-12-18T16:19:11;28.90;;;15.97;;
10872;SDS011;34586;53.616;10.032;2022-12-18T16:21:37;30.37;;;15.90;;
10872;SDS011;34586;53.616;10.032;2022-12-18T16:24:03;28.63;;;15.97;;
10872;SDS011;34586;53.616;10.032;2022-12-18T16:26:29;28.53;;;15.83;;
10872;SDS011;34586;53.616;10.032;2022-12-18T16:28:56;30.33;;;16.77;;